sensor_id;sensor_type;location;lat;lon;timestamp;P1;durP1;ratioP1;P2;durP2;ratioP2
7027;SDS011;3555;53.248;10.336;2022-07-11T00:00:58;6.47;;;1.33;;
7027;SDS011;3555;53.248;10.336;2022-07-11T00:03:25;4.78;;;1.25;;
7027;SDS011;3555;53.248;10.336;2022-07-11T00:05:53;3.10;;;1.20;;
7027;SDS011;3555;53.248;10.336;2022-07-11T00:08:21;2.92;;;1.30;;
7027;SDS011;3555;53.248;10.336;2022-07-11T00:10:48;3.38;;;1.17;;
7027;SDS011;3555;53.248;10.336;2022-07-11T00:13:15;7.38;;;1.55;;
7027;SDS011;3555;53.248;10.336;2022-07-11T00:15:41;4.13;;;1.40;;
7027;SDS011;3555;53.248;10.336;2022-07-11T00:18:08;1.55;;;1.02;;
7027;SDS011;3555;53.248;10.336;2022-07-11T00:20:35;2.85;;;1.40;;
7027;SDS011;3555;53.248;10.336;2022-07-11T00:23:02;5.05;;;1.60;;
7027;SDS011;3555;53.248;10.336;2022-07-11T00:25:30;3.20;;;1.27;;
7027;SDS011;3555;53.248;10.336;2022-07-11T00:27:57;4.72;;;1.50;;
7027;SDS011;3555;53.248;10.336;2022-07-11T00:30:24;2.65;;;1.10;;
7027;SDS011;3555;53.248;10.336;2022-07-11T00:32:50;5.82;;;1.42;;
7027;SDS011;3555;53.248;10.336;2022-07-11T00:35:17;2.45;;;1.00;;
7027;SDS011;3555;53.248;10.336;2022-07-11T00:37:44;7.38;;;1.60;;
7027;SDS011;3555;53.248;10.336;2022-07-11T00:40:11;3.50;;;1.10;;
7027;SDS011;3555;53.248;10.336;2022-07-11T00:42:39;4.18;;;1.30;;
7027;SDS011;3555;53.248;10.336;2022-07-11T00:45:06;5.55;;;1.25;;
7027;SDS011;3555;53.248;10.336;2022-07-11T00:47:33;4.05;;;1.30;;
7027;SDS011;3555;53.248;10.336;2022-07-11T00:50:00;5.03;;;1.20;;
7027;SDS011;3555;53.248;10.336;2022-07-11T00:52:28;5.57;;;1.40;;
7027;SDS011;3555;53.248;10.336;2022-07-11T00:54:55;2.33;;;0.98;;
7027;SDS011;3555;53.248;10.336;2022-07-11T00:57:23;6.88;;;1.30;;
7027;SDS011;3555;53.248;10.336;2022-07-11T00:59:51;3.38;;;1.25;;
7027;SDS011;3555;53.248;10.336;2022-07-11T01:02:19;2.55;;;1.30;;
7027;SDS011;3555;53.248;10.336;2022-07-11T01:04:46;3.40;;;1.00;;
7027;SDS011;3555;53.248;10.336;2022-07-11T01:07:13;4.15;;;1.15;;
7027;SDS011;3555;53.248;10.336;2022-07-11T01:09:39;3.85;;;1.10;;
7027;SDS011;3555;53.248;10.336;2022-07-11T01:12:06;3.10;;;0.95;;
7027;SDS011;3555;53.248;10.336;2022-07-11T01:14:34;2.50;;;1.10;;
7027;SDS011;3555;53.248;10.336;2022-07-11T01:17:03;3.38;;;1.20;;
7027;SDS011;3555;53.248;10.336;2022-07-11T01:19:30;3.08;;;1.42;;
7027;SDS011;3555;53.248;10.336;2022-07-11T01:21:58;3.90;;;1.30;;
7027;SDS011;3555;53.248;10.336;2022-07-11T01:24:29;4.03;;;1.20;;
7027;SDS011;3555;53.248;10.336;2022-07-11T01:26:57;5.80;;;1.30;;
7027;SDS011;3555;53.248;10.336;2022-07-11T01:29:24;4.35;;;1.25;;
7027;SDS011;3555;53.248;10.336;2022-07-11T01:31:51;2.08;;;1.20;;
7027;SDS011;3555;53.248;10.336;2022-07-11T01:34:18;3.35;;;1.27;;
7027;SDS011;3555;53.248;10.336;2022-07-11T01:36:44;2.08;;;1.00;;
7027;SDS011;3555;53.248;10.336;2022-07-11T01:39:11;6.43;;;1.50;;
7027;SDS011;3555;53.248;10.336;2022-07-11T01:41:39;6.03;;;1.48;;
7027;SDS011;3555;53.248;10.336;2022-07-11T01:44:06;6.25;;;1.65;;
7027;SDS011;3555;53.248;10.336;2022-07-11T01:46:33;5.70;;;1.40;;
7027;SDS011;3555;53.248;10.336;2022-07-11T01:49:00;3.58;;;1.17;;
7027;SDS011;3555;53.248;10.336;2022-07-11T01:51:27;2.15;;;1.10;;
7027;SDS011;3555;53.248;10.336;2022-07-11T01:53:54;4.45;;;1.27;;
7027;SDS011;3555;53.248;10.336;2022-07-11T01:56:21;3.15;;;1.23;;
7027;SDS011;3555;53.248;10.336;2022-07-11T01:58:49;4.80;;;1.17;;
7027;SDS011;3555;53.248;10.336;2022-07-11T02:01:16;4.28;;;1.27;;
7027;SDS011;3555;53.248;10.336;2022-07-11T02:03:43;3.05;;;1.17;;
7027;SDS011;3555;53.248;10.336;2022-07-11T02:06:10;4.55;;;1.38;;
7027;SDS011;3555;53.248;10.336;2022-07-11T02:08:37;6.53;;;1.30;;
7027;SDS011;3555;53.248;10.336;2022-07-11T02:11:04;4.43;;;1.10;;
7027;SDS011;3555;53.248;10.336;2022-07-11T02:13:30;1.70;;;1.02;;
7027;SDS011;3555;53.248;10.336;2022-07-11T02:15:59;1.77;;;0.90;;
7027;SDS011;3555;53.248;10.336;2022-07-11T02:18:27;2.58;;;1.30;;
7027;SDS011;3555;53.248;10.336;2022-07-11T02:20:54;3.20;;;1.40;;
7027;SDS011;3555;53.248;10.336;2022-07-11T02:23:21;2.03;;;1.00;;
7027;SDS011;3555;53.248;10.336;2022-07-11T02:25:48;3.70;;;1.23;;
7027;SDS011;3555;53.248;10.336;2022-07-11T02:28:15;1.85;;;0.95;;
7027;SDS011;3555;53.248;10.336;2022-07-11T02:30:43;2.15;;;0.95;;
7027;SDS011;3555;53.248;10.336;2022-07-11T02:33:12;6.80;;;1.13;;
7027;SDS011;3555;53.248;10.336;2022-07-11T02:35:40;2.90;;;1.00;;
7027;SDS011;3555;53.248;10.336;2022-07-11T02:38:07;2.03;;;0.93;;
7027;SDS011;3555;53.248;10.336;2022-07-11T02:40:34;3.28;;;1.17;;
7027;SDS011;3555;53.248;10.336;2022-07-11T02:43:01;2.28;;;1.17;;
7027;SDS011;3555;53.248;10.336;2022-07-11T02:45:28;4.88;;;1.00;;
7027;SDS011;3555;53.248;10.336;2022-07-11T02:47:55;3.22;;;1.10;;
7027;SDS011;3555;53.248;10.336;2022-07-11T02:50:23;4.07;;;1.30;;
7027;SDS011;3555;53.248;10.336;2022-07-11T02:52:50;3.22;;;1.05;;
7027;SDS011;3555;53.248;10.336;2022-07-11T02:55:17;2.25;;;1.17;;
7027;SDS011;3555;53.248;10.336;2022-07-11T02:57:44;3.70;;;1.15;;
7027;SDS011;3555;53.248;10.336;2022-07-11T03:00:11;4.22;;;1.17;;
7027;SDS011;3555;53.248;10.336;2022-07-11T03:02:40;2.55;;;1.00;;
7027;SDS011;3555;53.248;10.336;2022-07-11T03:05:07;2.22;;;1.05;;
7027;SDS011;3555;53.248;10.336;2022-07-11T03:07:36;2.72;;;1.00;;
7027;SDS011;3555;53.248;10.336;2022-07-11T03:10:03;2.15;;;1.27;;
7027;SDS011;3555;53.248;10.336;2022-07-11T03:12:30;2.08;;;0.95;;
7027;SDS011;3555;53.248;10.336;2022-07-11T03:14:57;3.65;;;1.27;;
7027;SDS011;3555;53.248;10.336;2022-07-11T03:17:24;3.58;;;1.00;;
7027;SDS011;3555;53.248;10.336;2022-07-11T03:19:51;3.10;;;1.10;;
7027;SDS011;3555;53.248;10.336;2022-07-11T03:22:18;4.80;;;1.20;;
7027;SDS011;3555;53.248;10.336;2022-07-11T03:24:46;3.85;;;1.33;;
7027;SDS011;3555;53.248;10.336;2022-07-11T03:27:15;2.47;;;1.27;;
7027;SDS011;3555;53.248;10.336;2022-07-11T03:29:42;3.85;;;1.00;;
7027;SDS011;3555;53.248;10.336;2022-07-11T03:32:09;3.33;;;1.08;;
7027;SDS011;3555;53.248;10.336;2022-07-11T03:34:36;2.30;;;1.00;;
7027;SDS011;3555;53.248;10.336;2022-07-11T03:37:03;4.53;;;1.20;;
7027;SDS011;3555;53.248;10.336;2022-07-11T03:39:30;3.28;;;1.10;;
7027;SDS011;3555;53.248;10.336;2022-07-11T03:41:58;3.25;;;1.92;;
7027;SDS011;3555;53.248;10.336;2022-07-11T03:44:26;3.42;;;1.10;;
7027;SDS011;3555;53.248;10.336;2022-07-11T03:46:53;4.25;;;1.00;;
7027;SDS011;3555;53.248;10.336;2022-07-11T03:49:19;4.32;;;1.20;;
7027;SDS011;3555;53.248;10.336;2022-07-11T03:51:46;3.97;;;1.05;;
7027;SDS011;3555;53.248;10.336;2022-07-11T03:54:13;3.45;;;1.13;;
7027;SDS011;3555;53.248;10.336;2022-07-11T03:56:40;3.28;;;1.00;;
7027;SDS011;3555;53.248;10.336;2022-07-11T03:59:08;4.20;;;1.20;;
7027;SDS011;3555;53.248;10.336;2022-07-11T04:01:35;2.35;;;1.05;;
7027;SDS011;3555;53.248;10.336;2022-07-11T04:04:02;5.30;;;1.10;;
7027;SDS011;3555;53.248;10.336;2022-07-11T04:06:30;2.70;;;0.95;;
7027;SDS011;3555;53.248;10.336;2022-07-11T04:08:57;5.70;;;1.10;;
7027;SDS011;3555;53.248;10.336;2022-07-11T04:11:24;2.53;;;1.20;;
7027;SDS011;3555;53.248;10.336;2022-07-11T04:13:51;4.95;;;1.48;;
7027;SDS011;3555;53.248;10.336;2022-07-11T04:16:19;2.17;;;1.33;;
7027;SDS011;3555;53.248;10.336;2022-07-11T04:18:46;3.90;;;1.30;;
7027;SDS011;3555;53.248;10.336;2022-07-11T04:21:13;3.95;;;1.00;;
7027;SDS011;3555;53.248;10.336;2022-07-11T04:23:40;3.08;;;1.30;;
7027;SDS011;3555;53.248;10.336;2022-07-11T04:26:07;3.17;;;1.30;;
7027;SDS011;3555;53.248;10.336;2022-07-11T04:28:34;2.75;;;1.20;;
7027;SDS011;3555;53.248;10.336;2022-07-11T04:31:00;3.63;;;1.00;;
7027;SDS011;3555;53.248;10.336;2022-07-11T04:33:29;2.92;;;1.20;;
7027;SDS011;3555;53.248;10.336;2022-07-11T04:35:55;2.13;;;1.23;;
7027;SDS011;3555;53.248;10.336;2022-07-11T04:38:22;3.65;;;1.27;;
7027;SDS011;3555;53.248;10.336;2022-07-11T04:40:49;3.97;;;1.58;;
7027;SDS011;3555;53.248;10.336;2022-07-11T04:43:16;3.13;;;1.17;;
7027;SDS011;3555;53.248;10.336;2022-07-11T04:45:43;3.13;;;1.30;;
7027;SDS011;3555;53.248;10.336;2022-07-11T04:48:10;1.98;;;1.10;;
7027;SDS011;3555;53.248;10.336;2022-07-11T04:50:38;4.25;;;1.30;;
7027;SDS011;3555;53.248;10.336;2022-07-11T04:53:08;4.90;;;1.25;;
7027;SDS011;3555;53.248;10.336;2022-07-11T04:55:35;2.03;;;1.25;;
7027;SDS011;3555;53.248;10.336;2022-07-11T04:58:02;4.40;;;1.10;;
7027;SDS011;3555;53.248;10.336;2022-07-11T05:00:29;2.97;;;1.10;;
7027;SDS011;3555;53.248;10.336;2022-07-11T05:02:56;3.75;;;1.20;;
7027;SDS011;3555;53.248;10.336;2022-07-11T05:05:23;5.18;;;1.65;;
7027;SDS011;3555;53.248;10.336;2022-07-11T05:07:51;6.30;;;1.58;;
7027;SDS011;3555;53.248;10.336;2022-07-11T05:10:18;5.82;;;1.45;;
7027;SDS011;3555;53.248;10.336;2022-07-11T05:12:45;5.35;;;1.58;;
7027;SDS011;3555;53.248;10.336;2022-07-11T05:15:12;3.70;;;1.05;;
7027;SDS011;3555;53.248;10.336;2022-07-11T05:17:39;4.10;;;1.10;;
7027;SDS011;3555;53.248;10.336;2022-07-11T05:20:06;5.97;;;1.30;;
7027;SDS011;3555;53.248;10.336;2022-07-11T05:22:33;3.78;;;1.10;;
7027;SDS011;3555;53.248;10.336;2022-07-11T05:25:02;3.97;;;1.17;;
7027;SDS011;3555;53.248;10.336;2022-07-11T05:27:29;5.72;;;1.15;;
7027;SDS011;3555;53.248;10.336;2022-07-11T05:29:55;3.67;;;1.10;;
7027;SDS011;3555;53.248;10.336;2022-07-11T05:32:22;6.65;;;1.50;;
7027;SDS011;3555;53.248;10.336;2022-07-11T05:34:49;1.88;;;0.80;;
7027;SDS011;3555;53.248;10.336;2022-07-11T05:37:16;4.75;;;1.20;;
7027;SDS011;3555;53.248;10.336;2022-07-11T05:39:43;3.83;;;1.00;;
7027;SDS011;3555;53.248;10.336;2022-07-11T05:42:11;2.78;;;0.90;;
7027;SDS011;3555;53.248;10.336;2022-07-11T05:44:39;7.55;;;1.73;;
7027;SDS011;3555;53.248;10.336;2022-07-11T05:47:06;5.38;;;1.05;;
7027;SDS011;3555;53.248;10.336;2022-07-11T05:49:33;5.13;;;1.30;;
7027;SDS011;3555;53.248;10.336;2022-07-11T05:52:00;5.25;;;1.35;;
7027;SDS011;3555;53.248;10.336;2022-07-11T05:54:27;3.63;;;1.10;;
7027;SDS011;3555;53.248;10.336;2022-07-11T05:56:54;4.38;;;1.25;;
7027;SDS011;3555;53.248;10.336;2022-07-11T05:59:22;6.30;;;1.63;;
7027;SDS011;3555;53.248;10.336;2022-07-11T06:01:49;5.25;;;1.23;;
7027;SDS011;3555;53.248;10.336;2022-07-11T06:04:16;6.25;;;1.42;;
7027;SDS011;3555;53.248;10.336;2022-07-11T06:06:43;3.28;;;1.33;;
7027;SDS011;3555;53.248;10.336;2022-07-11T06:09:10;5.90;;;1.50;;
7027;SDS011;3555;53.248;10.336;2022-07-11T06:11:36;5.10;;;1.27;;
7027;SDS011;3555;53.248;10.336;2022-07-11T06:14:02;4.93;;;1.40;;
7027;SDS011;3555;53.248;10.336;2022-07-11T06:16:32;5.25;;;1.48;;
7027;SDS011;3555;53.248;10.336;2022-07-11T06:19:00;3.75;;;1.10;;
7027;SDS011;3555;53.248;10.336;2022-07-11T06:21:27;5.43;;;1.33;;
7027;SDS011;3555;53.248;10.336;2022-07-11T06:23:54;3.35;;;1.05;;
7027;SDS011;3555;53.248;10.336;2022-07-11T06:26:21;6.97;;;1.40;;
7027;SDS011;3555;53.248;10.336;2022-07-11T06:28:48;3.80;;;1.10;;
7027;SDS011;3555;53.248;10.336;2022-07-11T06:31:15;3.35;;;1.00;;
7027;SDS011;3555;53.248;10.336;2022-07-11T06:33:44;5.32;;;1.48;;
7027;SDS011;3555;53.248;10.336;2022-07-11T06:36:10;4.57;;;1.48;;
7027;SDS011;3555;53.248;10.336;2022-07-11T06:38:37;7.18;;;1.30;;
7027;SDS011;3555;53.248;10.336;2022-07-11T06:41:06;3.65;;;1.00;;
7027;SDS011;3555;53.248;10.336;2022-07-11T06:43:33;3.65;;;1.33;;
7027;SDS011;3555;53.248;10.336;2022-07-11T06:46:00;5.80;;;1.20;;
7027;SDS011;3555;53.248;10.336;2022-07-11T06:48:27;3.50;;;1.17;;
7027;SDS011;3555;53.248;10.336;2022-07-11T06:50:55;2.00;;;0.90;;
7027;SDS011;3555;53.248;10.336;2022-07-11T06:53:22;4.78;;;1.15;;
7027;SDS011;3555;53.248;10.336;2022-07-11T06:55:49;3.80;;;0.90;;
7027;SDS011;3555;53.248;10.336;2022-07-11T06:58:15;6.85;;;1.55;;
7027;SDS011;3555;53.248;10.336;2022-07-11T07:01:09;3.17;;;1.08;;
7027;SDS011;3555;53.248;10.336;2022-07-11T07:03:36;3.00;;;1.00;;
7027;SDS011;3555;53.248;10.336;2022-07-11T07:06:03;5.13;;;1.38;;
7027;SDS011;3555;53.248;10.336;2022-07-11T07:08:31;4.78;;;1.13;;
7027;SDS011;3555;53.248;10.336;2022-07-11T07:10:58;3.67;;;1.02;;
7027;SDS011;3555;53.248;10.336;2022-07-11T07:13:24;3.35;;;0.90;;
7027;SDS011;3555;53.248;10.336;2022-07-11T07:15:54;4.32;;;1.00;;
7027;SDS011;3555;53.248;10.336;2022-07-11T07:18:23;3.35;;;0.80;;
7027;SDS011;3555;53.248;10.336;2022-07-11T07:20:50;6.32;;;1.50;;
7027;SDS011;3555;53.248;10.336;2022-07-11T07:23:17;4.03;;;0.95;;
7027;SDS011;3555;53.248;10.336;2022-07-11T07:25:44;3.63;;;1.10;;
7027;SDS011;3555;53.248;10.336;2022-07-11T07:28:11;4.85;;;1.00;;
7027;SDS011;3555;53.248;10.336;2022-07-11T07:30:38;3.42;;;1.00;;
7027;SDS011;3555;53.248;10.336;2022-07-11T07:33:05;5.45;;;1.30;;
7027;SDS011;3555;53.248;10.336;2022-07-11T07:35:33;2.80;;;1.10;;
7027;SDS011;3555;53.248;10.336;2022-07-11T07:38:00;3.25;;;1.10;;
7027;SDS011;3555;53.248;10.336;2022-07-11T07:40:27;3.67;;;1.25;;
7027;SDS011;3555;53.248;10.336;2022-07-11T07:42:54;2.90;;;0.90;;
7027;SDS011;3555;53.248;10.336;2022-07-11T07:45:21;2.78;;;1.10;;
7027;SDS011;3555;53.248;10.336;2022-07-11T07:47:48;2.78;;;0.90;;
7027;SDS011;3555;53.248;10.336;2022-07-11T07:50:15;4.57;;;1.00;;
7027;SDS011;3555;53.248;10.336;2022-07-11T07:52:43;2.75;;;1.02;;
7027;SDS011;3555;53.248;10.336;2022-07-11T07:55:10;4.20;;;1.10;;
7027;SDS011;3555;53.248;10.336;2022-07-11T07:57:37;4.30;;;1.05;;
7027;SDS011;3555;53.248;10.336;2022-07-11T08:00:04;3.65;;;1.05;;
7027;SDS011;3555;53.248;10.336;2022-07-11T08:02:49;6.55;;;1.00;;
7027;SDS011;3555;53.248;10.336;2022-07-11T08:05:16;3.20;;;1.17;;
7027;SDS011;3555;53.248;10.336;2022-07-11T08:07:44;3.30;;;0.90;;
7027;SDS011;3555;53.248;10.336;2022-07-11T08:10:11;3.35;;;0.90;;
7027;SDS011;3555;53.248;10.336;2022-07-11T08:12:39;2.95;;;0.90;;
7027;SDS011;3555;53.248;10.336;2022-07-11T08:15:06;4.43;;;1.10;;
7027;SDS011;3555;53.248;10.336;2022-07-11T08:17:34;6.25;;;1.25;;
7027;SDS011;3555;53.248;10.336;2022-07-11T08:20:01;2.17;;;0.90;;
7027;SDS011;3555;53.248;10.336;2022-07-11T08:22:28;1.88;;;0.75;;
7027;SDS011;3555;53.248;10.336;2022-07-11T08:24:56;3.13;;;0.80;;
7027;SDS011;3555;53.248;10.336;2022-07-11T08:27:23;3.42;;;0.80;;
7027;SDS011;3555;53.248;10.336;2022-07-11T08:29:50;4.18;;;1.00;;
7027;SDS011;3555;53.248;10.336;2022-07-11T08:32:17;2.42;;;0.90;;
7027;SDS011;3555;53.248;10.336;2022-07-11T08:34:44;2.67;;;0.80;;
7027;SDS011;3555;53.248;10.336;2022-07-11T08:37:11;1.95;;;0.93;;
7027;SDS011;3555;53.248;10.336;2022-07-11T08:39:38;2.53;;;0.98;;
7027;SDS011;3555;53.248;10.336;2022-07-11T08:42:06;3.08;;;1.15;;
7027;SDS011;3555;53.248;10.336;2022-07-11T08:44:33;4.55;;;0.98;;
7027;SDS011;3555;53.248;10.336;2022-07-11T08:47:03;2.13;;;0.85;;
7027;SDS011;3555;53.248;10.336;2022-07-11T08:49:30;3.20;;;1.10;;
7027;SDS011;3555;53.248;10.336;2022-07-11T08:51:57;2.60;;;0.63;;
7027;SDS011;3555;53.248;10.336;2022-07-11T08:54:25;3.28;;;0.98;;
7027;SDS011;3555;53.248;10.336;2022-07-11T08:56:51;2.08;;;0.80;;
7027;SDS011;3555;53.248;10.336;2022-07-11T08:59:22;3.03;;;0.95;;
7027;SDS011;3555;53.248;10.336;2022-07-11T09:01:50;3.65;;;0.90;;
7027;SDS011;3555;53.248;10.336;2022-07-11T09:04:20;2.45;;;0.80;;
7027;SDS011;3555;53.248;10.336;2022-07-11T09:06:49;1.80;;;0.73;;
7027;SDS011;3555;53.248;10.336;2022-07-11T09:09:16;1.85;;;0.80;;
7027;SDS011;3555;53.248;10.336;2022-07-11T09:11:50;3.47;;;0.77;;
7027;SDS011;3555;53.248;10.336;2022-07-11T09:14:24;3.83;;;1.05;;
7027;SDS011;3555;53.248;10.336;2022-07-11T09:16:53;2.22;;;0.70;;
7027;SDS011;3555;53.248;10.336;2022-07-11T09:19:20;4.63;;;0.90;;
7027;SDS011;3555;53.248;10.336;2022-07-11T09:21:55;1.55;;;0.60;;
7027;SDS011;3555;53.248;10.336;2022-07-11T09:24:51;2.38;;;0.85;;
7027;SDS011;3555;53.248;10.336;2022-07-11T09:27:39;2.70;;;0.85;;
7027;SDS011;3555;53.248;10.336;2022-07-11T09:30:22;2.53;;;0.90;;
7027;SDS011;3555;53.248;10.336;2022-07-11T09:32:51;2.08;;;0.80;;
7027;SDS011;3555;53.248;10.336;2022-07-11T09:35:22;1.70;;;0.50;;
7027;SDS011;3555;53.248;10.336;2022-07-11T09:37:50;2.40;;;0.70;;
7027;SDS011;3555;53.248;10.336;2022-07-11T09:40:18;3.75;;;0.73;;
7027;SDS011;3555;53.248;10.336;2022-07-11T09:42:47;5.03;;;1.00;;
7027;SDS011;3555;53.248;10.336;2022-07-11T09:45:16;2.58;;;0.90;;
7027;SDS011;3555;53.248;10.336;2022-07-11T09:47:45;2.63;;;0.80;;
7027;SDS011;3555;53.248;10.336;2022-07-11T09:50:13;4.07;;;0.90;;
7027;SDS011;3555;53.248;10.336;2022-07-11T09:52:44;2.65;;;0.98;;
7027;SDS011;3555;53.248;10.336;2022-07-11T09:55:25;6.95;;;0.90;;
7027;SDS011;3555;53.248;10.336;2022-07-11T09:57:52;1.88;;;0.80;;
7027;SDS011;3555;53.248;10.336;2022-07-11T10:00:19;2.17;;;0.80;;
7027;SDS011;3555;53.248;10.336;2022-07-11T10:02:48;1.33;;;0.70;;
7027;SDS011;3555;53.248;10.336;2022-07-11T10:05:15;1.60;;;0.65;;
7027;SDS011;3555;53.248;10.336;2022-07-11T10:07:42;3.72;;;0.80;;
7027;SDS011;3555;53.248;10.336;2022-07-11T10:10:09;3.05;;;0.90;;
7027;SDS011;3555;53.248;10.336;2022-07-11T10:12:36;2.08;;;0.93;;
7027;SDS011;3555;53.248;10.336;2022-07-11T10:15:03;4.32;;;0.88;;
7027;SDS011;3555;53.248;10.336;2022-07-11T10:17:34;3.83;;;0.95;;
7027;SDS011;3555;53.248;10.336;2022-07-11T10:20:11;1.88;;;0.80;;
7027;SDS011;3555;53.248;10.336;2022-07-11T10:22:44;1.48;;;0.68;;
7027;SDS011;3555;53.248;10.336;2022-07-11T10:25:18;4.55;;;0.90;;
7027;SDS011;3555;53.248;10.336;2022-07-11T10:27:53;3.30;;;0.80;;
7027;SDS011;3555;53.248;10.336;2022-07-11T10:30:42;2.50;;;0.88;;
7027;SDS011;3555;53.248;10.336;2022-07-11T10:33:10;2.00;;;0.80;;
7027;SDS011;3555;53.248;10.336;2022-07-11T10:35:40;2.40;;;0.80;;
7027;SDS011;3555;53.248;10.336;2022-07-11T10:38:08;1.80;;;0.70;;
7027;SDS011;3555;53.248;10.336;2022-07-11T10:40:41;2.80;;;0.75;;
7027;SDS011;3555;53.248;10.336;2022-07-11T10:43:13;2.45;;;0.80;;
7027;SDS011;3555;53.248;10.336;2022-07-11T10:45:53;1.63;;;0.80;;
7027;SDS011;3555;53.248;10.336;2022-07-11T10:48:24;1.88;;;0.63;;
7027;SDS011;3555;53.248;10.336;2022-07-11T10:51:04;2.22;;;0.68;;
7027;SDS011;3555;53.248;10.336;2022-07-11T10:53:38;2.03;;;0.88;;
7027;SDS011;3555;53.248;10.336;2022-07-11T10:56:13;2.63;;;0.70;;
7027;SDS011;3555;53.248;10.336;2022-07-11T10:58:49;2.42;;;0.93;;
7027;SDS011;3555;53.248;10.336;2022-07-11T11:01:26;1.30;;;0.70;;
7027;SDS011;3555;53.248;10.336;2022-07-11T11:03:53;1.30;;;0.63;;
7027;SDS011;3555;53.248;10.336;2022-07-11T11:07:05;1.58;;;0.80;;
7027;SDS011;3555;53.248;10.336;2022-07-11T11:09:38;2.42;;;1.02;;
7027;SDS011;3555;53.248;10.336;2022-07-11T11:12:05;2.30;;;0.70;;
7027;SDS011;3555;53.248;10.336;2022-07-11T11:14:32;2.70;;;0.80;;
7027;SDS011;3555;53.248;10.336;2022-07-11T11:19:59;1.88;;;0.60;;
7027;SDS011;3555;53.248;10.336;2022-07-11T11:22:27;2.95;;;0.90;;
7027;SDS011;3555;53.248;10.336;2022-07-11T11:24:55;1.80;;;0.68;;
7027;SDS011;3555;53.248;10.336;2022-07-11T11:27:23;4.30;;;0.90;;
7027;SDS011;3555;53.248;10.336;2022-07-11T11:29:52;2.58;;;0.70;;
7027;SDS011;3555;53.248;10.336;2022-07-11T11:32:20;2.78;;;0.85;;
7027;SDS011;3555;53.248;10.336;2022-07-11T11:34:47;2.00;;;0.70;;
7027;SDS011;3555;53.248;10.336;2022-07-11T11:37:15;3.50;;;0.82;;
7027;SDS011;3555;53.248;10.336;2022-07-11T11:39:44;2.30;;;0.95;;
7027;SDS011;3555;53.248;10.336;2022-07-11T11:42:13;1.92;;;0.70;;
7027;SDS011;3555;53.248;10.336;2022-07-11T11:44:48;3.78;;;0.88;;
7027;SDS011;3555;53.248;10.336;2022-07-11T11:47:19;2.85;;;0.70;;
7027;SDS011;3555;53.248;10.336;2022-07-11T11:49:46;1.52;;;0.52;;
7027;SDS011;3555;53.248;10.336;2022-07-11T11:52:14;3.05;;;0.90;;
7027;SDS011;3555;53.248;10.336;2022-07-11T11:54:41;2.30;;;0.65;;
7027;SDS011;3555;53.248;10.336;2022-07-11T11:57:10;2.65;;;0.80;;
7027;SDS011;3555;53.248;10.336;2022-07-11T11:59:37;1.70;;;0.65;;
7027;SDS011;3555;53.248;10.336;2022-07-11T12:02:04;1.98;;;0.75;;
7027;SDS011;3555;53.248;10.336;2022-07-11T12:04:31;3.53;;;0.60;;
7027;SDS011;3555;53.248;10.336;2022-07-11T12:07:01;3.70;;;0.70;;
7027;SDS011;3555;53.248;10.336;2022-07-11T12:09:28;3.30;;;1.10;;
7027;SDS011;3555;53.248;10.336;2022-07-11T12:12:21;1.60;;;0.55;;
7027;SDS011;3555;53.248;10.336;2022-07-11T12:15:22;2.75;;;0.60;;
7027;SDS011;3555;53.248;10.336;2022-07-11T12:17:51;2.10;;;0.75;;
7027;SDS011;3555;53.248;10.336;2022-07-11T12:20:32;2.03;;;0.60;;
7027;SDS011;3555;53.248;10.336;2022-07-11T12:23:03;1.48;;;0.63;;
7027;SDS011;3555;53.248;10.336;2022-07-11T12:25:31;1.70;;;0.60;;
7027;SDS011;3555;53.248;10.336;2022-07-11T12:27:59;1.17;;;0.50;;
7027;SDS011;3555;53.248;10.336;2022-07-11T12:30:26;1.83;;;0.70;;
7027;SDS011;3555;53.248;10.336;2022-07-11T12:33:07;2.15;;;0.60;;
7027;SDS011;3555;53.248;10.336;2022-07-11T12:35:35;1.42;;;0.60;;
7027;SDS011;3555;53.248;10.336;2022-07-11T12:38:02;0.95;;;0.50;;
7027;SDS011;3555;53.248;10.336;2022-07-11T12:40:30;2.42;;;0.60;;
7027;SDS011;3555;53.248;10.336;2022-07-11T12:42:57;2.30;;;0.57;;
7027;SDS011;3555;53.248;10.336;2022-07-11T12:45:25;2.60;;;0.60;;
7027;SDS011;3555;53.248;10.336;2022-07-11T12:47:51;0.88;;;0.50;;
7027;SDS011;3555;53.248;10.336;2022-07-11T12:50:19;1.35;;;0.60;;
7027;SDS011;3555;53.248;10.336;2022-07-11T12:52:48;2.85;;;0.60;;
7027;SDS011;3555;53.248;10.336;2022-07-11T12:55:19;0.95;;;0.40;;
7027;SDS011;3555;53.248;10.336;2022-07-11T12:58:03;0.90;;;0.40;;
7027;SDS011;3555;53.248;10.336;2022-07-11T13:00:34;1.65;;;0.60;;
7027;SDS011;3555;53.248;10.336;2022-07-11T13:03:02;1.23;;;0.40;;
7027;SDS011;3555;53.248;10.336;2022-07-11T13:05:29;1.17;;;0.50;;
7027;SDS011;3555;53.248;10.336;2022-07-11T13:08:20;0.80;;;0.50;;
7027;SDS011;3555;53.248;10.336;2022-07-11T13:11:05;0.80;;;0.43;;
7027;SDS011;3555;53.248;10.336;2022-07-11T13:13:32;4.40;;;0.75;;
7027;SDS011;3555;53.248;10.336;2022-07-11T13:16:01;1.00;;;0.50;;
7027;SDS011;3555;53.248;10.336;2022-07-11T13:18:29;0.75;;;0.47;;
7027;SDS011;3555;53.248;10.336;2022-07-11T13:20:56;1.13;;;0.60;;
7027;SDS011;3555;53.248;10.336;2022-07-11T13:23:23;2.35;;;0.50;;
7027;SDS011;3555;53.248;10.336;2022-07-11T13:25:50;1.55;;;0.50;;
7027;SDS011;3555;53.248;10.336;2022-07-11T13:28:17;1.33;;;0.60;;
7027;SDS011;3555;53.248;10.336;2022-07-11T13:30:44;1.08;;;0.45;;
7027;SDS011;3555;53.248;10.336;2022-07-11T13:33:14;1.23;;;0.50;;
7027;SDS011;3555;53.248;10.336;2022-07-11T13:35:41;1.00;;;0.60;;
7027;SDS011;3555;53.248;10.336;2022-07-11T13:38:08;1.27;;;0.50;;
7027;SDS011;3555;53.248;10.336;2022-07-11T13:40:35;2.35;;;0.52;;
7027;SDS011;3555;53.248;10.336;2022-07-11T13:43:02;2.90;;;0.70;;
7027;SDS011;3555;53.248;10.336;2022-07-11T13:45:28;3.05;;;0.57;;
7027;SDS011;3555;53.248;10.336;2022-07-11T13:47:56;2.05;;;0.63;;
7027;SDS011;3555;53.248;10.336;2022-07-11T13:50:24;1.75;;;0.60;;
7027;SDS011;3555;53.248;10.336;2022-07-11T13:52:51;2.70;;;0.80;;
7027;SDS011;3555;53.248;10.336;2022-07-11T13:55:19;2.05;;;0.50;;
7027;SDS011;3555;53.248;10.336;2022-07-11T13:57:47;1.10;;;0.50;;
7027;SDS011;3555;53.248;10.336;2022-07-11T14:00:18;1.00;;;0.60;;
7027;SDS011;3555;53.248;10.336;2022-07-11T14:02:45;2.45;;;0.70;;
7027;SDS011;3555;53.248;10.336;2022-07-11T14:05:12;2.50;;;0.60;;
7027;SDS011;3555;53.248;10.336;2022-07-11T14:07:41;0.70;;;0.50;;
7027;SDS011;3555;53.248;10.336;2022-07-11T14:10:08;2.50;;;0.60;;
7027;SDS011;3555;53.248;10.336;2022-07-11T14:12:35;1.85;;;0.63;;
7027;SDS011;3555;53.248;10.336;2022-07-11T14:15:03;1.50;;;0.70;;
7027;SDS011;3555;53.248;10.336;2022-07-11T14:17:30;1.20;;;0.70;;
7027;SDS011;3555;53.248;10.336;2022-07-11T14:19:57;1.45;;;0.70;;
7027;SDS011;3555;53.248;10.336;2022-07-11T14:22:23;1.83;;;0.60;;
7027;SDS011;3555;53.248;10.336;2022-07-11T14:24:51;2.58;;;0.88;;
7027;SDS011;3555;53.248;10.336;2022-07-11T14:27:18;1.67;;;0.50;;
7027;SDS011;3555;53.248;10.336;2022-07-11T14:29:46;0.98;;;0.55;;
7027;SDS011;3555;53.248;10.336;2022-07-11T14:32:13;1.13;;;0.50;;
7027;SDS011;3555;53.248;10.336;2022-07-11T14:34:41;1.25;;;0.50;;
7027;SDS011;3555;53.248;10.336;2022-07-11T14:37:09;0.80;;;0.50;;
7027;SDS011;3555;53.248;10.336;2022-07-11T14:39:36;0.90;;;0.50;;
7027;SDS011;3555;53.248;10.336;2022-07-11T14:42:05;0.75;;;0.50;;
7027;SDS011;3555;53.248;10.336;2022-07-11T14:44:32;1.65;;;0.60;;
7027;SDS011;3555;53.248;10.336;2022-07-11T14:46:59;2.03;;;0.70;;
7027;SDS011;3555;53.248;10.336;2022-07-11T14:49:27;0.95;;;0.50;;
7027;SDS011;3555;53.248;10.336;2022-07-11T14:51:54;1.23;;;0.70;;
7027;SDS011;3555;53.248;10.336;2022-07-11T14:54:21;1.83;;;0.43;;
7027;SDS011;3555;53.248;10.336;2022-07-11T14:56:48;1.20;;;0.60;;
7027;SDS011;3555;53.248;10.336;2022-07-11T14:59:16;2.22;;;0.80;;
7027;SDS011;3555;53.248;10.336;2022-07-11T15:01:43;2.25;;;0.60;;
7027;SDS011;3555;53.248;10.336;2022-07-11T15:04:09;2.80;;;0.85;;
7027;SDS011;3555;53.248;10.336;2022-07-11T15:06:36;0.98;;;0.50;;
7027;SDS011;3555;53.248;10.336;2022-07-11T15:09:19;1.13;;;0.50;;
7027;SDS011;3555;53.248;10.336;2022-07-11T15:12:04;2.80;;;0.60;;